Time;durP1;ratioP1;P1;durP2;ratioP2;P2;SDS_P1;SDS_P2;PMS_P1;PMS_P2;Temp;Humidity;BMP_temperature;BMP_pressure;BME280_temperature;BME280_humidity;BME280_pressure;Samples;Min_cycle;Max_cycle;Signal;HPM_P1;HPM_P2
2022/09/02 00:00:25;;;;;;;8.27;4.60;;;;;;;18.11;59.51;97534.19;5065314;28;20428;-70
2022/09/02 00:02:50;;;;;;;5.40;4.30;;;;;;;18.10;59.56;97531.75;5073857;28;20183;-71
2022/09/02 00:05:16;;;;;;;6.70;4.30;;;;;;;18.04;59.77;97527.22;5073310;28;20214;-71
2022/09/02 00:07:42;;;;;;;5.23;4.10;;;;;;;18.03;59.54;97525.56;5060145;28;20189;-70
2022/09/02 00:10:08;;;;;;;4.80;4.40;;;;;;;17.99;59.82;97521.69;5073554;28;20452;-70
2022/09/02 00:12:33;;;;;;;7.17;4.30;;;;;;;17.99;59.83;97526.97;5065609;28;20182;-70
2022/09/02 00:14:59;;;;;;;4.93;4.40;;;;;;;18.00;59.79;97521.47;5073486;28;20190;-71
2022/09/02 00:17:24;;;;;;;7.17;4.30;;;;;;;18.00;59.48;97510.88;5072717;28;20676;-70
2022/09/02 00:19:50;;;;;;;5.13;4.73;;;;;;;17.93;59.75;97510.78;5073393;28;20604;-70
2022/09/02 00:22:15;;;;;;;4.83;4.27;;;;;;;17.90;59.81;97502.41;5065317;28;20655;-71
2022/09/02 00:24:40;;;;;;;5.73;4.50;;;;;;;17.79;60.06;97501.91;5073688;28;20317;-70
2022/09/02 00:27:06;;;;;;;13.50;10.13;;;;;;;17.79;59.87;97509.03;5072415;28;20182;-70
2022/09/02 00:29:31;;;;;;;7.13;4.70;;;;;;;17.76;59.94;97506.78;5061764;28;20231;-71
2022/09/02 00:31:57;;;;;;;21.47;15.17;;;;;;;17.78;59.91;97499.44;5069330;28;20556;-69
2022/09/02 00:34:23;;;;;;;23.83;17.40;;;;;;;17.79;59.90;97498.44;5072919;28;20193;-70
2022/09/02 00:36:48;;;;;;;11.00;8.90;;;;;;;17.79;59.88;97493.13;5065209;28;20206;-70
2022/09/02 00:39:14;;;;;;;14.93;11.83;;;;;;;17.73;59.77;97496.56;5068920;28;20264;-69
2022/09/02 00:41:41;;;;;;;16.30;13.50;;;;;;;17.70;60.16;97499.59;5073400;28;20550;-70
2022/09/02 00:44:09;;;;;;;18.40;14.00;;;;;;;17.70;59.85;97486.31;5072645;28;20645;-69
2022/09/02 00:46:35;;;;;;;17.03;14.47;;;;;;;17.66;59.43;97489.34;5066861;28;20425;-70
2022/09/02 00:49:08;;;;;;;19.80;17.37;;;;;;;17.63;59.90;97488.91;5069145;28;20452;-72
2022/09/02 00:51:43;;;;;;;16.30;13.30;;;;;;;17.52;60.40;97489.44;5064800;28;20661;-71
2022/09/02 00:54:10;;;;;;;9.50;8.17;;;;;;;17.40;60.78;97495.25;5063158;28;20478;-71
2022/09/02 00:56:37;;;;;;;8.40;7.70;;;;;;;17.49;60.41;97488.78;5066950;28;20643;-71
2022/09/02 00:59:03;;;;;;;7.00;6.40;;;;;;;17.48;60.20;97486.34;5067414;28;20468;-71
2022/09/02 01:01:28;;;;;;;18.77;16.00;;;;;;;17.54;60.00;97488.22;5063346;28;20911;-71
2022/09/02 01:03:53;;;;;;;9.50;8.50;;;;;;;17.50;60.15;97485.13;5072782;28;20632;-71
2022/09/02 01:06:23;;;;;;;11.27;9.70;;;;;;;17.47;60.15;97490.81;5060033;28;20273;-70
2022/09/02 01:08:55;;;;;;;6.67;5.40;;;;;;;17.48;59.83;97492.44;5061310;28;20290;-70
2022/09/02 01:11:21;;;;;;;16.30;13.73;;;;;;;17.50;59.67;97487.00;5062139;28;20432;-71
2022/09/02 01:13:47;;;;;;;6.27;5.10;;;;;;;17.45;59.90;97484.88;5072374;28;20508;-71
2022/09/02 01:16:24;;;;;;;8.83;4.60;;;;;;;17.45;59.95;97489.38;5072387;28;20850;-71
2022/09/02 01:18:53;;;;;;;5.00;4.60;;;;;;;17.41;59.85;97482.81;5071152;28;20206;-70
2022/09/02 01:21:19;;;;;;;5.93;4.67;;;;;;;17.42;59.91;97487.09;5064247;28;20524;-71
2022/09/02 01:23:46;;;;;;;4.87;4.37;;;;;;;17.38;59.89;97497.25;5072185;28;20456;-71
2022/09/02 01:26:11;;;;;;;5.70;4.60;;;;;;;17.22;60.44;97495.66;5072014;28;20425;-70
2022/09/02 01:28:37;;;;;;;5.80;4.87;;;;;;;17.25;60.32;97494.47;5071571;28;20436;-71
2022/09/02 01:31:03;;;;;;;7.17;4.50;;;;;;;17.26;60.21;97494.31;5072373;28;20266;-70
2022/09/02 01:33:28;;;;;;;5.07;4.57;;;;;;;17.23;59.97;97491.19;5072145;28;20223;-69
2022/09/02 01:35:55;;;;;;;5.07;4.13;;;;;;;17.22;60.06;97498.31;5066049;28;20546;-70
2022/09/02 01:38:22;;;;;;;4.83;4.30;;;;;;;17.25;59.97;97495.31;5065669;28;20179;-70
2022/09/02 01:40:47;;;;;;;5.70;4.80;;;;;;;17.16;60.29;97489.28;5066024;28;20417;-70
2022/09/02 01:43:16;;;;;;;5.10;4.70;;;;;;;17.14;60.10;97501.06;5069637;28;20484;-70
2022/09/02 01:45:43;;;;;;;5.73;4.40;;;;;;;17.10;60.14;97494.53;5065337;28;20518;-69
2022/09/02 01:48:09;;;;;;;5.27;4.87;;;;;;;17.09;60.24;97498.19;5055740;28;20501;-70
2022/09/02 01:50:38;;;;;;;7.10;5.27;;;;;;;16.91;60.29;97496.72;5064284;28;20564;-71
2022/09/02 01:53:04;;;;;;;5.27;4.13;;;;;;;16.92;60.49;97495.72;5063682;28;20607;-70
2022/09/02 01:55:30;;;;;;;6.90;4.57;;;;;;;16.89;60.51;97491.63;5071514;28;20417;-70
2022/09/02 01:57:56;;;;;;;14.40;4.50;;;;;;;16.94;60.44;97490.25;5071156;28;20182;-70
2022/09/02 02:00:22;;;;;;;5.30;4.47;;;;;;;16.93;60.47;97486.75;5071448;28;20849;-70
2022/09/02 02:02:48;;;;;;;3.97;3.67;;;;;;;16.90;60.51;97484.47;5071463;28;20193;-71
2022/09/02 02:05:15;;;;;;;5.50;4.30;;;;;;;16.95;60.35;97484.78;5071464;28;20178;-70
2022/09/02 02:07:44;;;;;;;4.80;4.10;;;;;;;16.96;60.25;97483.78;5063207;28;20428;-70
2022/09/02 02:10:10;;;;;;;6.90;3.97;;;;;;;16.97;60.32;97485.41;5070460;28;20448;-70
2022/09/02 02:12:37;;;;;;;4.73;4.10;;;;;;;16.91;60.44;97488.78;5071369;28;20424;-71
2022/09/02 02:15:05;;;;;;;4.20;3.90;;;;;;;16.86;60.35;97493.81;5071246;28;20419;-70
2022/09/02 02:17:30;;;;;;;4.03;3.70;;;;;;;16.84;60.18;97485.25;5070429;28;20429;-71
2022/09/02 02:19:56;;;;;;;4.13;3.73;;;;;;;16.78;60.30;97496.56;5071256;28;20507;-68
2022/09/02 02:22:21;;;;;;;4.63;3.90;;;;;;;16.72;60.51;97491.00;5063040;28;20182;-70
2022/09/02 02:24:47;;;;;;;4.77;4.33;;;;;;;16.78;60.41;97485.97;5070979;28;20214;-71
2022/09/02 02:27:12;;;;;;;4.13;3.83;;;;;;;16.78;60.09;97485.97;5062197;28;20191;-70
2022/09/02 02:29:38;;;;;;;4.53;4.13;;;;;;;16.82;60.30;97487.25;5070982;28;20656;-70
2022/09/02 02:32:04;;;;;;;4.40;4.00;;;;;;;16.81;60.19;97480.31;5071076;28;20717;-71
2022/09/02 02:34:29;;;;;;;6.00;4.07;;;;;;;16.74;60.34;97489.00;5070940;28;20178;-71
2022/09/02 02:36:55;;;;;;;4.27;3.73;;;;;;;16.74;60.04;97483.72;5062788;28;20819;-69
2022/09/02 02:39:20;;;;;;;7.63;4.10;;;;;;;16.69;60.37;97478.13;5066508;28;20248;-70
2022/09/02 02:41:46;;;;;;;5.20;3.80;;;;;;;16.73;60.08;97474.13;5071055;28;20649;-69
2022/09/02 02:44:12;;;;;;;4.37;3.57;;;;;;;16.60;60.46;97476.59;5070928;28;20206;-70
2022/09/02 02:46:38;;;;;;;4.00;3.70;;;;;;;16.62;60.24;97471.97;5063513;28;20590;-70
2022/09/02 02:49:04;;;;;;;3.60;3.40;;;;;;;16.62;60.38;97477.25;5070944;28;20444;-69
2022/09/02 02:51:30;;;;;;;3.87;3.47;;;;;;;16.56;60.48;97480.63;5070948;28;20209;-70
2022/09/02 02:53:55;;;;;;;4.20;3.80;;;;;;;16.56;60.42;97472.69;5070817;28;20427;-69
2022/09/02 02:56:21;;;;;;;6.63;3.70;;;;;;;16.50;60.51;97473.44;5061219;28;20207;-71
2022/09/02 02:58:47;;;;;;;6.23;4.30;;;;;;;16.46;60.66;97474.78;5071130;28;20210;-69
2022/09/02 03:01:12;;;;;;;3.70;3.40;;;;;;;16.32;61.15;97482.53;5059490;28;20210;-70
2022/09/02 03:03:38;;;;;;;5.13;3.70;;;;;;;16.38;60.85;97476.50;5059046;28;20203;-70
2022/09/02 03:06:03;;;;;;;3.67;3.37;;;;;;;16.40;60.38;97473.69;5051810;28;20643;-71
2022/09/02 03:08:29;;;;;;;3.77;3.47;;;;;;;16.42;60.69;97472.50;5053433;28;20178;-70
2022/09/02 03:10:55;;;;;;;4.20;3.80;;;;;;;16.37;60.49;97472.25;5070931;28;20592;-69
2022/09/02 03:13:21;;;;;;;7.70;3.73;;;;;;;16.38;60.45;97475.69;5070718;28;20182;-69
2022/09/02 03:15:47;;;;;;;4.33;3.83;;;;;;;16.24;60.51;97477.34;5070854;28;20186;-70
2022/09/02 03:18:13;;;;;;;4.50;4.10;;;;;;;16.29;60.61;97477.59;5061574;28;20424;-70
2022/09/02 03:20:39;;;;;;;6.10;3.50;;;;;;;16.24;60.83;97474.72;5065892;28;20229;-71
2022/09/02 03:23:05;;;;;;;4.03;3.40;;;;;;;16.09;61.20;97469.38;5069810;28;20478;-70
2022/09/02 03:25:31;;;;;;;4.13;3.63;;;;;;;16.17;61.00;97479.91;5066497;28;20817;-71
2022/09/02 03:27:57;;;;;;;5.03;3.50;;;;;;;16.18;61.09;97467.47;5073900;28;20247;-70
2022/09/02 03:30:24;;;;;;;4.87;3.30;;;;;;;16.20;60.87;97468.13;5074357;28;20441;-70
2022/09/02 03:32:55;;;;;;;7.93;4.23;;;;;;;16.21;60.69;97473.22;5074397;28;20256;-70
2022/09/02 03:35:22;;;;;;;4.90;3.90;;;;;;;16.18;60.74;97470.97;5072643;28;20424;-68
2022/09/02 03:37:48;;;;;;;4.13;3.73;;;;;;;16.22;60.76;97466.94;5065824;28;20862;-71
2022/09/02 03:40:17;;;;;;;4.17;3.77;;;;;;;16.19;60.54;97466.50;5070814;28;20820;-71
2022/09/02 03:42:42;;;;;;;11.70;3.57;;;;;;;16.20;60.44;97468.94;5071364;28;20420;-69
2022/09/02 03:45:10;;;;;;;4.43;3.50;;;;;;;16.16;60.46;97462.38;5063866;28;20826;-71
2022/09/02 03:47:39;;;;;;;4.37;3.80;;;;;;;16.15;60.53;97460.75;5073401;28;20182;-71
2022/09/02 03:50:05;;;;;;;3.63;3.33;;;;;;;16.11;60.57;97470.88;5073722;28;20445;-70
2022/09/02 03:52:31;;;;;;;4.40;3.50;;;;;;;16.09;60.65;97472.03;5074238;28;20431;-70
2022/09/02 03:54:56;;;;;;;4.07;3.67;;;;;;;16.09;60.41;97462.28;5045425;28;20834;-70
2022/09/02 03:57:24;;;;;;;5.53;3.80;;;;;;;15.99;60.53;97458.25;5043328;28;20187;-69
2022/09/02 03:59:50;;;;;;;5.07;3.90;;;;;;;15.97;60.62;97463.75;5053643;28;20213;-71
2022/09/02 04:02:16;;;;;;;4.73;3.47;;;;;;;15.96;60.80;97464.75;5052389;28;20421;-70
2022/09/02 04:04:41;;;;;;;4.77;3.50;;;;;;;15.99;60.56;97471.47;5049328;28;20241;-69
2022/09/02 04:07:06;;;;;;;5.07;3.97;;;;;;;16.00;60.54;97458.09;5053588;28;20232;-70
2022/09/02 04:09:32;;;;;;;4.13;3.83;;;;;;;15.99;60.20;97461.75;5054281;28;20195;-70
2022/09/02 04:11:57;;;;;;;3.70;3.13;;;;;;;15.88;60.78;97462.19;5049692;28;20610;-69
2022/09/02 04:14:23;;;;;;;6.77;3.67;;;;;;;15.85;60.81;97460.69;5053959;28;20179;-70
2022/09/02 04:16:48;;;;;;;4.00;3.60;;;;;;;15.85;60.99;97462.53;5053374;28;20175;-69
2022/09/02 04:19:14;;;;;;;3.90;3.60;;;;;;;15.86;60.77;97472.09;5046818;28;20551;-71
2022/09/02 04:21:40;;;;;;;6.03;3.70;;;;;;;15.85;60.71;97467.81;5062165;28;20182;-70
2022/09/02 04:24:08;;;;;;;4.50;3.83;;;;;;;15.80;60.77;97465.69;5054076;28;20242;-70
2022/09/02 04:26:34;;;;;;;4.60;3.77;;;;;;;15.81;60.81;97465.50;5049981;28;20433;-70
2022/09/02 04:28:59;;;;;;;6.67;3.50;;;;;;;15.73;61.02;97462.94;5045545;28;20457;-68
2022/09/02 04:31:27;;;;;;;7.10;3.80;;;;;;;15.73;60.88;97462.09;5052928;28;20417;-71
2022/09/02 04:33:53;;;;;;;4.57;4.07;;;;;;;15.75;60.83;97463.56;5052332;28;20183;-70
2022/09/02 04:36:19;;;;;;;4.80;3.97;;;;;;;15.73;60.98;97462.94;5052274;28;20453;-70
2022/09/02 04:38:45;;;;;;;4.73;4.03;;;;;;;15.72;60.89;97458.66;5050868;28;20206;-70
2022/09/02 04:41:16;;;;;;;7.47;4.00;;;;;;;15.64;61.09;97464.00;5052830;28;20785;-70
2022/09/02 04:43:42;;;;;;;5.80;3.83;;;;;;;15.61;61.06;97454.59;5051720;28;20574;-71
2022/09/02 04:46:10;;;;;;;3.93;3.53;;;;;;;15.65;61.27;97463.00;5058996;28;20492;-71
2022/09/02 04:48:36;;;;;;;4.07;3.70;;;;;;;15.65;61.23;97463.00;5045278;28;20277;-71
2022/09/02 04:51:07;;;;;;;7.07;4.67;;;;;;;15.60;61.31;97452.97;5052687;28;20785;-70
2022/09/02 04:53:33;;;;;;;4.13;3.83;;;;;;;15.58;61.56;97451.50;5045076;28;20468;-70
2022/09/02 04:55:58;;;;;;;6.83;4.80;;;;;;;15.64;61.41;97458.72;5047240;28;20790;-70
2022/09/02 04:58:24;;;;;;;5.27;3.50;;;;;;;15.60;61.42;97462.72;5051282;28;20191;-69
2022/09/02 05:00:49;;;;;;;5.20;3.90;;;;;;;15.64;61.38;97456.06;5052868;28;20657;-70
2022/09/02 05:03:15;;;;;;;5.40;4.23;;;;;;;15.70;61.01;97463.28;5049448;28;20246;-71
2022/09/02 05:05:40;;;;;;;4.63;4.20;;;;;;;15.72;61.02;97460.47;5049607;28;20577;-72
2022/09/02 05:08:06;;;;;;;5.40;4.00;;;;;;;15.72;61.25;97463.94;5051569;28;20278;-71
2022/09/02 05:10:32;;;;;;;6.20;4.33;;;;;;;15.72;61.14;97466.59;5051002;28;20207;-69
2022/09/02 05:12:58;;;;;;;5.40;4.10;;;;;;;15.68;61.46;97456.56;5049682;28;20236;-71
2022/09/02 05:15:24;;;;;;;7.20;4.07;;;;;;;15.57;61.76;97457.78;5051554;28;21386;-70
2022/09/02 05:17:49;;;;;;;5.37;4.20;;;;;;;15.61;61.88;97451.97;5051594;28;20460;-71
2022/09/02 05:20:15;;;;;;;6.63;4.50;;;;;;;15.66;61.91;97456.72;5052038;28;20206;-70
2022/09/02 05:22:42;;;;;;;4.53;4.13;;;;;;;15.69;62.13;97461.66;5054065;28;20665;-70
2022/09/02 05:25:08;;;;;;;4.63;4.20;;;;;;;15.69;62.16;97461.66;5057030;28;20289;-72
2022/09/02 05:27:34;;;;;;;6.97;4.07;;;;;;;15.74;62.04;97459.31;5051236;28;20932;-72
2022/09/02 05:29:59;;;;;;;9.00;4.17;;;;;;;15.78;62.08;97465.84;5052180;28;20471;-69
2022/09/02 05:32:26;;;;;;;5.30;4.20;;;;;;;15.84;62.04;97464.31;5047467;28;20429;-70
2022/09/02 05:34:53;;;;;;;5.27;4.77;;;;;;;15.84;62.10;97461.66;5052130;28;20245;-70
2022/09/02 05:37:18;;;;;;;4.60;4.20;;;;;;;15.82;62.19;97461.84;5050358;28;20442;-69
2022/09/02 05:39:44;;;;;;;6.57;4.90;;;;;;;15.84;62.32;97459.03;5046385;28;21199;-70
2022/09/02 05:42:09;;;;;;;7.77;4.20;;;;;;;15.86;62.63;97464.19;5045246;28;20535;-70
2022/09/02 05:44:35;;;;;;;5.87;4.67;;;;;;;15.96;62.53;97462.09;5054370;28;20221;-71
2022/09/02 05:47:01;;;;;;;5.23;4.10;;;;;;;16.05;62.46;97463.66;5054911;28;20269;-70
2022/09/02 05:49:26;;;;;;;12.97;4.30;;;;;;;16.03;62.60;97463.00;5051471;28;20209;-70
2022/09/02 05:51:54;;;;;;;4.37;4.00;;;;;;;16.15;62.70;97466.03;5058429;28;20265;-70
2022/09/02 05:54:29;;;;;;;7.67;4.47;;;;;;;16.27;62.53;97453.16;5042157;28;20183;-70
2022/09/02 05:56:59;;;;;;;8.40;4.63;;;;;;;16.43;62.45;97452.97;5051050;28;20471;-71
2022/09/02 05:59:27;;;;;;;8.63;3.97;;;;;;;16.61;62.48;97453.59;5051170;28;20445;-69
2022/09/02 06:01:53;;;;;;;10.60;5.10;;;;;;;16.75;62.30;97458.06;5051737;28;20429;-70
2022/09/02 06:04:20;;;;;;;6.20;4.10;;;;;;;16.89;62.00;97457.19;5048963;28;20473;-71
2022/09/02 06:06:46;;;;;;;10.60;4.23;;;;;;;17.08;61.77;97459.47;5056698;28;20418;-70
2022/09/02 06:09:14;;;;;;;12.00;4.63;;;;;;;17.26;61.29;97459.88;5051444;28;20527;-70
2022/09/02 06:11:44;;;;;;;4.67;4.20;;;;;;;17.41;60.96;97459.78;5051592;28;20639;-69
2022/09/02 06:14:12;;;;;;;4.40;4.00;;;;;;;17.59;60.88;97455.84;5051568;28;20513;-69
2022/09/02 06:16:39;;;;;;;6.30;4.07;;;;;;;17.76;60.38;97456.41;5050829;28;20429;-69
2022/09/02 06:19:04;;;;;;;5.50;3.57;;;;;;;17.88;60.27;97457.53;5051121;28;20446;-71
2022/09/02 06:21:30;;;;;;;6.33;4.17;;;;;;;18.04;59.84;97452.97;5059450;28;20509;-69
2022/09/02 06:23:56;;;;;;;8.40;4.33;;;;;;;18.20;59.02;97452.66;5051249;28;20647;-70
2022/09/02 06:26:21;;;;;;;4.97;4.27;;;;;;;18.37;58.99;97453.16;5050486;28;20468;-70
2022/09/02 06:28:47;;;;;;;5.80;4.03;;;;;;;18.53;58.57;97449.34;5051102;28;20285;-70
2022/09/02 06:31:15;;;;;;;10.43;4.23;;;;;;;18.71;58.55;97453.31;5051216;28;20206;-70
2022/09/02 06:33:42;;;;;;;7.03;4.10;;;;;;;18.88;58.30;97448.47;5051433;28;20266;-70
2022/09/02 06:36:10;;;;;;;4.53;4.00;;;;;;;19.03;57.12;97443.84;5050560;28;20453;-72
2022/09/02 06:38:38;;;;;;;4.87;3.40;;;;;;;19.21;56.38;97441.63;5050409;28;20456;-69
2022/09/02 06:41:04;;;;;;;4.60;3.80;;;;;;;19.37;55.83;97446.56;5051284;28;20974;-72
2022/09/02 06:43:30;;;;;;;4.80;3.83;;;;;;;19.52;55.27;97448.22;5051176;28;20464;-70
2022/09/02 06:45:56;;;;;;;8.83;3.97;;;;;;;19.65;55.22;97442.91;5057762;28;20421;-69
2022/09/02 06:48:22;;;;;;;5.27;3.57;;;;;;;19.83;54.75;97444.09;5050245;28;20245;-70
2022/09/02 06:50:47;;;;;;;5.83;3.37;;;;;;;19.97;54.01;97451.09;5051314;28;20634;-70
2022/09/02 06:53:13;;;;;;;7.37;3.07;;;;;;;20.13;53.01;97451.69;5050455;28;20178;-71
2022/09/02 06:55:42;;;;;;;4.67;3.70;;;;;;;20.22;51.99;97448.59;5051167;28;20183;-70
2022/09/02 06:58:08;;;;;;;5.37;3.37;;;;;;;20.40;51.77;97439.94;5049736;28;20935;-71
2022/09/02 07:00:34;;;;;;;8.17;6.90;;;;;;;20.60;51.65;97447.03;5050858;28;20537;-71
2022/09/02 07:05:44;;;;;;;3.10;2.87;;;;;;;20.98;50.03;97446.28;5047709;28;20439;-71
2022/09/02 07:08:10;;;;;;;4.53;3.20;;;;;;;21.23;49.75;97445.50;5059563;28;20509;-71
2022/09/02 07:10:40;;;;;;;7.43;3.47;;;;;;;21.37;49.17;97442.75;5051700;28;20195;-72
2022/09/02 07:13:06;;;;;;;5.00;3.20;;;;;;;21.54;48.90;97441.22;5044756;28;20186;-69
2022/09/02 07:15:32;;;;;;;5.90;3.07;;;;;;;21.72;48.36;97440.47;5050690;28;20433;-69
2022/09/02 07:17:58;;;;;;;3.20;2.90;;;;;;;21.76;46.39;97430.19;5050080;28;20818;-70
2022/09/02 07:20:24;;;;;;;3.23;2.77;;;;;;;21.84;46.67;97427.22;5053205;28;20453;-70
2022/09/02 07:22:49;;;;;;;5.73;2.80;;;;;;;22.02;46.38;97426.44;5056054;28;20317;-69
2022/09/02 07:25:16;;;;;;;3.20;2.80;;;;;;;22.15;46.64;97427.34;5050246;28;20302;-71
2022/09/02 07:27:42;;;;;;;4.70;2.70;;;;;;;22.31;45.63;97425.94;5049934;28;20266;-70
2022/09/02 07:30:09;;;;;;;3.40;3.10;;;;;;;22.44;45.31;97425.81;5058152;28;20498;-70
2022/09/02 07:32:34;;;;;;;5.80;2.33;;;;;;;22.53;44.12;97429.81;5050806;28;20453;-70
2022/09/02 07:35:00;;;;;;;3.07;2.70;;;;;;;22.51;43.81;97429.22;5050692;28;20981;-70
2022/09/02 07:37:27;;;;;;;4.30;2.37;;;;;;;22.63;44.18;97421.25;5044050;28;20213;-72
2022/09/02 07:39:52;;;;;;;4.07;2.30;;;;;;;22.79;43.60;97427.03;5049259;28;20206;-70
2022/09/02 07:42:18;;;;;;;4.10;2.50;;;;;;;22.96;43.83;97416.53;5050441;28;20457;-70
2022/09/02 07:44:43;;;;;;;7.83;2.70;;;;;;;23.13;43.67;97417.53;5053827;28;20202;-70
2022/09/02 07:47:09;;;;;;;3.87;2.83;;;;;;;23.34;43.18;97420.72;5052473;28;20191;-70
2022/09/02 07:49:35;;;;;;;6.83;2.53;;;;;;;23.52;42.56;97417.16;5050417;28;20199;-71
2022/09/02 07:52:00;;;;;;;3.60;2.67;;;;;;;23.67;42.07;97419.41;5050653;28;20654;-70
2022/09/02 07:54:26;;;;;;;2.80;2.43;;;;;;;23.80;41.59;97422.88;5050142;28;20229;-70
2022/09/02 07:56:52;;;;;;;3.43;2.40;;;;;;;23.84;40.90;97416.00;5049805;28;20179;-70
2022/09/02 07:59:18;;;;;;;3.20;2.37;;;;;;;23.92;40.36;97413.81;5049889;28;20245;-71
2022/09/02 08:01:44;;;;;;;4.70;1.93;;;;;;;24.12;40.34;97412.66;5050462;28;20443;-71
2022/09/02 08:04:09;;;;;;;5.10;2.30;;;;;;;24.24;40.13;97412.63;5049709;28;20971;-70
2022/09/02 08:06:36;;;;;;;2.47;1.70;;;;;;;24.41;39.76;97409.22;5052701;28;20195;-69
2022/09/02 08:09:05;;;;;;;2.53;2.00;;;;;;;24.54;38.80;97411.66;5054858;28;20203;-70
2022/09/02 08:11:32;;;;;;;3.03;1.93;;;;;;;24.59;38.77;97418.97;5046084;28;20413;-69
2022/09/02 08:13:59;;;;;;;2.43;1.83;;;;;;;24.53;38.29;97424.22;5053561;28;20471;-72
2022/09/02 08:16:24;;;;;;;5.00;2.20;;;;;;;24.76;38.29;97424.41;5052664;28;20480;-71
2022/09/02 08:18:50;;;;;;;3.77;1.80;;;;;;;24.91;38.12;97426.56;5062010;28;20844;-71
2022/09/02 08:21:16;;;;;;;5.07;1.90;;;;;;;25.04;37.27;97422.78;5061913;28;20195;-70
2022/09/02 08:23:41;;;;;;;4.53;1.80;;;;;;;25.12;36.53;97433.09;5053488;28;20215;-70
2022/09/02 08:26:07;;;;;;;2.30;2.00;;;;;;;25.19;36.56;97430.28;5053298;28;20277;-71
2022/09/02 08:28:32;;;;;;;3.73;1.93;;;;;;;25.34;36.51;97432.41;5052560;28;20597;-69
2022/09/02 08:30:58;;;;;;;3.33;2.03;;;;;;;25.37;35.78;97431.91;5053826;28;20266;-70
2022/09/02 08:33:24;;;;;;;2.73;2.17;;;;;;;25.51;35.71;97433.25;5053310;28;20194;-70
2022/09/02 08:35:49;;;;;;;2.40;1.67;;;;;;;25.64;36.10;97417.91;5053057;28;20560;-69
2022/09/02 08:38:15;;;;;;;3.87;2.00;;;;;;;25.80;35.58;97430.50;5060670;28;20425;-70
2022/09/02 08:40:42;;;;;;;3.60;1.87;;;;;;;25.95;35.65;97416.47;5053124;28;20206;-70
2022/09/02 08:43:25;;;;;;;2.90;1.57;;;;;;;26.20;35.14;97423.28;5051409;28;20219;-70
2022/09/02 08:45:53;;;;;;;7.23;2.60;;;;;;;26.42;34.83;97419.81;5058366;28;20432;-70
2022/09/02 08:48:27;;;;;;;2.13;1.83;;;;;;;26.60;34.38;97416.81;5052370;28;20437;-71
2022/09/02 08:50:59;;;;;;;2.23;1.90;;;;;;;26.66;33.83;97410.41;5053238;28;20579;-70
2022/09/02 08:53:30;;;;;;;4.37;2.30;;;;;;;26.61;33.37;97417.59;5051699;28;20418;-69
2022/09/02 08:55:58;;;;;;;2.47;2.00;;;;;;;26.77;34.22;97416.72;5053132;28;20524;-70
2022/09/02 08:58:29;;;;;;;2.10;1.90;;;;;;;26.97;32.29;97405.41;5052097;28;20425;-70
2022/09/02 09:01:23;;;;;;;8.20;1.90;;;;;;;26.36;33.27;97400.94;5052042;28;20422;-69
2022/09/02 09:04:16;;;;;;;4.43;1.93;;;;;;;26.76;33.45;97409.72;5048000;28;20492;-70
2022/09/02 09:07:00;;;;;;;2.20;2.00;;;;;;;27.01;32.92;97411.09;5045930;28;20474;-71
2022/09/02 09:09:35;;;;;;;5.47;2.70;;;;;;;27.18;32.59;97404.78;5052438;28;20977;-71
2022/09/02 09:12:07;;;;;;;4.40;2.90;;;;;;;27.32;32.52;97397.94;5060176;28;20421;-70
2022/09/02 09:15:20;;;;;;;3.70;3.30;;;;;;;27.34;31.46;97398.50;5044016;28;20410;-71
2022/09/02 09:17:59;;;;;;;6.40;2.20;;;;;;;27.46;31.32;97401.00;5042192;28;20800;-71
2022/09/02 09:20:27;;;;;;;2.90;1.60;;;;;;;27.28;31.92;97396.81;5049406;28;20453;-71
2022/09/02 09:22:57;;;;;;;2.47;1.80;;;;;;;27.54;31.85;97383.59;5057393;28;20426;-70
2022/09/02 09:25:28;;;;;;;7.63;3.50;;;;;;;27.55;30.77;97388.69;5051019;28;20956;-71
2022/09/02 09:28:00;;;;;;;4.30;1.57;;;;;;;27.50;31.40;97393.22;5051799;28;20453;-70
2022/09/02 09:30:27;;;;;;;1.70;1.60;;;;;;;27.85;31.36;97391.88;5052142;28;20445;-70
2022/09/02 09:32:56;;;;;;;5.73;1.60;;;;;;;28.03;30.74;97387.94;5052178;28;20520;-70
2022/09/02 09:35:22;;;;;;;2.07;1.97;;;;;;;28.24;30.76;97378.06;5052258;28;20851;-70
2022/09/02 09:37:54;;;;;;;4.53;2.20;;;;;;;28.44;30.81;97381.94;5053684;28;20445;-70
2022/09/02 09:40:29;;;;;;;4.63;2.20;;;;;;;28.53;30.34;97383.03;5051367;28;20445;-70
2022/09/02 09:43:11;;;;;;;2.70;1.67;;;;;;;28.44;29.42;97382.75;5052060;28;20421;-70
2022/09/02 09:45:40;;;;;;;2.13;1.20;;;;;;;28.53;29.66;97380.34;5051325;28;20424;-72
2022/09/02 09:48:28;;;;;;;3.30;1.90;;;;;;;28.72;29.31;97379.88;5051170;28;20929;-69
2022/09/02 09:50:54;;;;;;;6.43;1.80;;;;;;;28.76;29.56;97380.97;5052218;28;20778;-69
2022/09/02 09:53:23;;;;;;;4.27;2.70;;;;;;;28.92;28.69;97374.53;5051728;28;20418;-70
2022/09/02 09:55:53;;;;;;;4.13;3.30;;;;;;;28.73;28.61;97376.94;5051828;28;20189;-69
2022/09/02 09:58:20;;;;;;;5.90;1.60;;;;;;;28.61;28.62;97366.34;5051110;28;20422;-69
2022/09/02 10:00:45;;;;;;;2.93;2.60;;;;;;;28.93;28.93;97365.38;5050721;28;20445;-70
2022/09/02 10:03:21;;;;;;;2.77;1.70;;;;;;;29.14;27.91;97359.97;5051481;28;20487;-71
2022/09/02 10:05:46;;;;;;;3.97;2.10;;;;;;;29.37;27.85;97368.63;5050213;28;20273;-69
2022/09/02 10:08:14;;;;;;;3.00;2.00;;;;;;;29.37;27.33;97369.47;5057757;28;20440;-70
2022/09/02 10:10:54;;;;;;;5.60;2.60;;;;;;;29.39;27.78;97361.09;5051453;28;20677;-70
2022/09/02 10:13:28;;;;;;;4.20;1.37;;;;;;;29.56;27.23;97356.22;5051453;28;20421;-70
2022/09/02 10:16:00;;;;;;;1.60;1.20;;;;;;;29.61;26.84;97360.00;5051618;28;20825;-70
2022/09/02 10:18:42;;;;;;;3.40;1.40;;;;;;;29.70;26.52;97352.97;5050664;28;20422;-70
2022/09/02 10:21:22;;;;;;;1.70;1.40;;;;;;;29.91;27.48;97352.91;5058152;28;20439;-70
2022/09/02 10:23:50;;;;;;;1.30;1.17;;;;;;;30.07;26.97;97356.38;5051572;28;20656;-71
2022/09/02 10:26:45;;;;;;;5.83;1.10;;;;;;;30.19;26.64;97355.00;5051017;28;20510;-70
2022/09/02 10:29:24;;;;;;;2.00;1.20;;;;;;;30.25;25.94;97346.84;5046233;28;20453;-70
2022/09/02 10:32:11;;;;;;;5.10;1.30;;;;;;;30.06;25.21;97344.78;5050962;28;20901;-70
2022/09/02 10:34:56;;;;;;;8.63;1.43;;;;;;;30.27;26.07;97345.50;5043905;28;20526;-70
2022/09/02 10:37:29;;;;;;;3.07;1.40;;;;;;;30.34;26.11;97339.81;5050188;28;20971;-70
2022/09/02 10:39:58;;;;;;;1.43;1.20;;;;;;;30.24;25.03;97329.06;5049519;28;20448;-70
2022/09/02 10:42:46;;;;;;;1.50;1.27;;;;;;;30.52;25.48;97329.41;5051112;28;20453;-70
2022/09/02 10:45:23;;;;;;;2.27;1.50;;;;;;;30.59;24.80;97335.38;5057304;28;20460;-71
2022/09/02 10:48:18;;;;;;;1.07;0.97;;;;;;;30.58;24.16;97339.16;5050384;28;20421;-70
2022/09/02 10:50:52;;;;;;;2.40;1.20;;;;;;;30.60;24.88;97324.28;5035018;28;20449;-71
2022/09/02 10:53:32;;;;;;;1.50;1.17;;;;;;;30.40;24.85;97317.06;5049958;28;20418;-70
2022/09/02 10:56:16;;;;;;;1.80;1.10;;;;;;;30.63;25.14;97314.78;5049937;28;20426;-69
2022/09/02 10:59:04;;;;;;;6.33;1.73;;;;;;;30.55;24.21;97313.50;5042732;28;20414;-72
2022/09/02 11:01:39;;;;;;;1.20;0.97;;;;;;;30.78;24.08;97303.88;5054601;28;20420;-70
2022/09/02 11:04:36;;;;;;;1.20;1.10;;;;;;;30.87;24.19;97297.88;5053644;28;20536;-70
2022/09/02 11:07:03;;;;;;;4.83;1.23;;;;;;;30.89;24.32;97295.66;5048933;28;20503;-69
2022/09/02 11:09:47;;;;;;;1.57;1.20;;;;;;;31.00;23.65;97293.69;5050880;28;20438;-70
2022/09/02 11:12:18;;;;;;;6.50;1.20;;;;;;;31.08;24.29;97293.06;5050662;28;20430;-69
2022/09/02 11:14:52;;;;;;;3.97;1.20;;;;;;;31.00;23.36;97288.28;5050732;28;20991;-70
2022/09/02 11:17:43;;;;;;;3.53;1.27;;;;;;;30.89;23.03;97298.38;5048599;28;20421;-69
2022/09/02 11:20:25;;;;;;;7.73;1.23;;;;;;;30.86;23.71;97288.13;5051056;28;20959;-69
2022/09/02 11:22:56;;;;;;;2.03;1.20;;;;;;;30.77;23.25;97280.63;5049371;28;20520;-70
2022/09/02 11:25:41;;;;;;;1.17;1.07;;;;;;;30.79;23.40;97269.53;5048131;28;20464;-71
2022/09/02 11:28:34;;;;;;;9.60;1.20;;;;;;;30.77;22.92;97291.44;5050158;28;20429;-70
2022/09/02 11:31:06;;;;;;;1.50;1.20;;;;;;;30.40;23.33;97284.63;5050741;28;20413;-70
2022/09/02 11:33:44;;;;;;;1.37;1.03;;;;;;;30.42;23.93;97289.75;5041628;28;21039;-70
2022/09/02 11:36:10;;;;;;;1.47;1.00;;;;;;;30.67;24.20;97290.72;5050110;28;20498;-71
2022/09/02 11:38:44;;;;;;;2.83;1.33;;;;;;;30.61;23.66;97279.13;5046971;28;20414;-71
2022/09/02 11:41:19;;;;;;;3.20;1.27;;;;;;;30.79;23.99;97286.56;5049168;28;20186;-71